Time;durP1;ratioP1;P1;durP2;ratioP2;P2;SDS_P1;SDS_P2;PMS_P1;PMS_P2;Temp;Humidity;BMP_temperature;BMP_pressure;BME280_temperature;BME280_humidity;BME280_pressure;Samples;Min_cycle;Max_cycle;Signal;HPM_P1;HPM_P2
2022/05/09 00:01:48;;;;;;;5.50;4.15;;;;;;;15.07;nan;101282.47;5042651;28;20034;-80
2022/05/09 00:04:14;;;;;;;4.90;3.70;;;;;;;15.00;nan;101282.28;5040199;28;20056;-80
2022/05/09 00:06:40;;;;;;;6.13;4.70;;;;;;;14.99;nan;101280.63;5048556;28;20171;-80
2022/05/09 00:09:05;;;;;;;5.45;4.10;;;;;;;14.93;nan;101281.28;5042439;28;20496;-79
2022/05/09 00:11:32;;;;;;;4.65;4.15;;;;;;;14.91;nan;101277.09;5022762;28;20097;-81
2022/05/09 00:13:57;;;;;;;6.05;4.88;;;;;;;14.90;nan;101276.28;5044490;28;20034;-80
2022/05/09 00:16:23;;;;;;;4.50;3.80;;;;;;;14.93;nan;101286.59;5044291;28;20033;-80
2022/05/09 00:18:49;;;;;;;4.78;4.25;;;;;;;14.86;nan;101277.59;5040608;28;20450;-80
2022/05/09 00:21:14;;;;;;;5.85;4.72;;;;;;;14.79;nan;101280.06;5037917;28;20041;-80
2022/05/09 00:23:40;;;;;;;6.00;4.78;;;;;;;14.79;nan;101276.56;5031873;28;20159;-80
2022/05/09 00:26:05;;;;;;;4.88;4.28;;;;;;;14.76;nan;101276.91;5032049;28;20038;-81
2022/05/09 00:28:30;;;;;;;5.70;4.35;;;;;;;14.65;nan;101273.50;5022955;28;20061;-80
2022/05/09 00:30:56;;;;;;;5.72;4.80;;;;;;;14.69;nan;101271.38;5045321;28;20029;-79
2022/05/09 00:33:24;;;;;;;5.18;4.18;;;;;;;14.65;nan;101273.50;5032487;28;20034;-80
2022/05/09 00:35:49;;;;;;;6.82;5.05;;;;;;;14.66;nan;101277.03;5034148;28;20030;-80
2022/05/09 00:38:15;;;;;;;5.57;4.50;;;;;;;14.62;nan;101284.47;5036092;28;20042;-80
2022/05/09 00:41:28;;;;;;;7.88;4.90;;;;;;;14.58;nan;101284.97;5018985;28;20041;-81
2022/05/09 00:43:35;;;;;;;4.63;4.03;;;;;;;14.57;nan;101288.63;5033435;28;20030;-81
2022/05/09 00:46:02;;;;;;;8.23;5.60;;;;;;;14.49;nan;101284.06;5044113;28;20087;-81
2022/05/09 00:48:27;;;;;;;5.30;4.40;;;;;;;14.44;nan;101281.88;5032065;28;20040;-80
2022/05/09 00:50:53;;;;;;;4.85;3.80;;;;;;;14.36;nan;101286.31;5038513;28;20037;-81
2022/05/09 00:53:19;;;;;;;6.93;5.07;;;;;;;14.22;nan;101288.56;5035604;28;20050;-81
2022/05/09 00:55:50;;;;;;;5.97;4.95;;;;;;;14.13;nan;101293.97;5032789;28;20026;-81
2022/05/09 00:58:22;;;;;;;;;;;;;;;14.07;nan;101292.78;5016732;28;20148;-81
2022/05/09 01:00:47;;;;;;;7.35;4.22;;;;;;;13.99;nan;101298.91;5029335;28;19925;-80
2022/05/09 01:03:19;;;;;;;4.50;3.97;;;;;;;13.96;nan;101299.19;5030307;28;20034;-80
2022/05/09 01:05:50;;;;;;;;;;;;;;;13.87;nan;101299.28;5012719;28;20082;-80
2022/05/09 01:08:16;;;;;;;5.72;4.20;;;;;;;13.82;nan;101302.41;5014552;28;20051;-81
2022/05/09 01:10:42;;;;;;;;;;;;;;;13.76;nan;101303.03;5037432;28;20037;-80
2022/05/09 01:13:09;;;;;;;;;;;;;;;13.68;nan;101294.97;5022006;28;19924;-81
2022/05/09 01:15:35;;;;;;;;;;;;;;;13.61;nan;101292.09;5037889;28;20293;-80
2022/05/09 01:18:01;;;;;;;;;;;;;;;13.57;nan;101293.41;5021561;28;19955;-80
2022/05/09 01:20:26;;;;;;;;;;;;;;;13.61;nan;101294.78;5040470;28;19993;-80
2022/05/09 01:22:56;;;;;;;;;;;;;;;13.64;nan;101294.44;5014746;28;19978;-81
2022/05/09 01:25:21;;;;;;;;;;;;;;;13.80;nan;101293.75;5025121;28;19979;-80
2022/05/09 01:27:47;;;;;;;;;;;;;;;13.86;nan;101290.47;5041345;28;19917;-80
2022/05/09 01:30:15;;;;;;;;;;;;;;;13.81;nan;101295.41;5037165;28;20386;-80
2022/05/09 01:32:43;;;;;;;;;;;;;;;13.81;nan;101296.25;5034743;28;19933;-80
2022/05/09 01:35:12;;;;;;;;;;;;;;;13.75;nan;101296.88;5035252;28;19924;-80
2022/05/09 01:37:39;;;;;;;;;;;;;;;13.66;nan;101294.28;5044013;28;19925;-80
2022/05/09 01:40:05;;;;;;;;;;;;;;;13.56;nan;101292.56;5043156;28;19928;-80
2022/05/09 01:42:30;;;;;;;;;;;;;;;13.52;nan;101293.03;5032308;28;19925;-80
2022/05/09 01:44:55;;;;;;;;;;;;;;;13.48;nan;101295.13;5044669;28;20004;-80
2022/05/09 01:50:05;;;;;;;;;;;;;;;13.56;nan;101297.03;5037185;28;19932;-80
2022/05/09 01:52:30;;;;;;;;;;;;;;;13.59;nan;101300.22;5043306;28;19917;-80
2022/05/09 01:54:55;;;;;;;7.40;5.17;;;;;;;13.60;nan;101295.75;5018550;28;19917;-80
2022/05/09 01:57:20;;;;;;;5.78;5.03;;;;;;;13.64;nan;101298.94;5011880;28;20395;-81
2022/05/09 01:59:46;;;;;;;6.47;4.70;;;;;;;13.64;nan;101294.44;5039010;28;20469;-80
2022/05/09 02:02:14;;;;;;;5.85;5.05;;;;;;;13.64;nan;101298.94;5038517;28;20574;-80
2022/05/09 02:04:41;;;;;;;7.25;5.60;;;;;;;13.71;nan;101307.97;5042033;28;20753;-81
2022/05/09 02:07:09;;;;;;;6.45;5.28;;;;;;;13.81;nan;101312.19;5023840;28;20038;-81
2022/05/09 02:09:40;;;;;;;7.30;6.10;;;;;;;13.88;nan;101312.44;5039753;28;20522;-80
2022/05/09 02:12:06;;;;;;;;;;;;;;;13.87;nan;101320.53;5021182;28;20540;-80
2022/05/09 02:14:31;;;;;;;7.75;5.80;;;;;;;13.88;nan;101317.75;5026368;28;19921;-80
2022/05/09 02:16:56;;;;;;;7.13;5.80;;;;;;;13.91;nan;101319.25;5047560;28;20029;-80
2022/05/09 02:19:22;;;;;;;6.38;5.13;;;;;;;13.91;nan;101311.28;5035247;28;20729;-81
2022/05/09 02:21:47;;;;;;;6.82;5.63;;;;;;;13.93;nan;101310.13;5046178;28;20060;-80
2022/05/09 02:24:12;;;;;;;8.45;5.90;;;;;;;13.97;nan;101310.69;5024688;28;20117;-80
2022/05/09 02:26:38;;;;;;;7.35;5.40;;;;;;;13.99;nan;101311.31;5043610;28;20044;-81
2022/05/09 02:29:04;;;;;;;7.22;5.38;;;;;;;14.01;nan;101306.69;5027513;28;20491;-81
2022/05/09 02:31:31;;;;;;;7.32;6.50;;;;;;;13.95;nan;101297.53;5038378;28;20037;-80
2022/05/09 02:33:56;;;;;;;7.05;5.70;;;;;;;13.98;nan;101307.00;5026288;28;20025;-80
2022/05/09 02:36:22;;;;;;;8.75;5.93;;;;;;;13.98;nan;101302.53;5020161;28;20076;-80
2022/05/09 02:38:47;;;;;;;6.30;5.38;;;;;;;13.96;nan;101306.31;5021448;28;20395;-81
2022/05/09 02:41:12;;;;;;;7.18;6.10;;;;;;;13.92;nan;101305.81;5019598;28;20041;-80
2022/05/09 02:43:38;;;;;;;5.82;5.22;;;;;;;13.90;nan;101306.97;5021190;28;20049;-80
2022/05/09 02:46:04;;;;;;;6.80;5.05;;;;;;;13.86;nan;101310.91;5044858;28;20032;-79
2022/05/09 02:48:31;;;;;;;5.20;4.40;;;;;;;13.83;nan;101303.25;5046906;28;20083;-80
2022/05/09 02:50:57;;;;;;;5.20;4.25;;;;;;;13.77;nan;101308.16;5037424;28;20026;-80
2022/05/09 02:53:23;;;;;;;5.97;5.05;;;;;;;13.68;nan;101302.94;5041183;28;20112;-80
2022/05/09 02:55:48;;;;;;;7.93;5.47;;;;;;;13.56;nan;101307.66;5038043;28;20049;-80
2022/05/09 02:58:14;;;;;;;7.85;5.40;;;;;;;13.44;nan;101306.22;5021503;28;20037;-80
2022/05/09 03:00:39;;;;;;;6.40;5.70;;;;;;;13.33;nan;101313.44;5037234;28;20029;-80
2022/05/09 03:06:00;;;;;;;6.03;5.15;;;;;;;13.08;nan;101312.28;4969780;28;20045;-79
2022/05/09 03:08:25;;;;;;;6.82;4.90;;;;;;;12.98;nan;101314.16;5033296;28;20034;-80
2022/05/09 03:10:51;;;;;;;6.78;5.18;;;;;;;12.85;nan;101309.22;5048269;28;20033;-79
2022/05/09 03:13:17;;;;;;;8.10;6.03;;;;;;;12.72;nan;101311.34;5042371;28;20033;-80
2022/05/09 03:15:45;;;;;;;8.15;5.80;;;;;;;12.64;nan;101319.22;5042669;28;20155;-81
2022/05/09 03:18:12;;;;;;;6.65;5.32;;;;;;;12.50;nan;101310.75;5043057;28;20119;-80
2022/05/09 03:20:38;;;;;;;6.75;5.25;;;;;;;12.40;nan;101315.25;5043858;28;20441;-80
2022/05/09 03:23:05;;;;;;;7.47;6.10;;;;;;;12.29;nan;101312.75;5047406;28;20037;-79
2022/05/09 03:25:31;;;;;;;7.38;6.13;;;;;;;12.22;nan;101314.31;5019166;28;20515;-80
2022/05/09 03:27:57;;;;;;;8.35;6.03;;;;;;;12.14;nan;101315.03;5022543;28;20613;-80
2022/05/09 03:30:24;;;;;;;7.13;5.70;;;;;;;12.05;nan;101303.47;5026726;28;20033;-80
2022/05/09 03:32:50;;;;;;;6.72;5.68;;;;;;;11.98;nan;101306.81;5040780;28;20515;-81
2022/05/09 03:35:16;;;;;;;7.50;6.45;;;;;;;11.93;nan;101312.56;5034474;28;20067;-80
2022/05/09 03:37:42;;;;;;;9.02;7.45;;;;;;;11.85;nan;101305.28;5023046;28;20045;-80
2022/05/09 03:40:09;;;;;;;9.70;7.25;;;;;;;11.81;nan;101313.66;5039303;28;20519;-80
2022/05/09 03:42:34;;;;;;;8.00;6.63;;;;;;;11.77;nan;101310.44;5016837;28;20033;-80
2022/05/09 03:44:59;;;;;;;7.93;6.40;;;;;;;11.69;nan;101315.59;5041939;28;20045;-81
2022/05/09 03:47:25;;;;;;;7.80;5.93;;;;;;;11.62;nan;101311.84;5017859;28;20100;-81
2022/05/09 03:49:55;;;;;;;7.20;6.10;;;;;;;11.57;nan;101311.44;5022892;28;20037;-80
2022/05/09 03:52:21;;;;;;;7.45;6.13;;;;;;;11.52;nan;101308.38;5038207;28;20040;-80
2022/05/09 03:54:46;;;;;;;7.35;6.45;;;;;;;11.44;nan;101306.38;5032632;28;20035;-80
2022/05/09 03:57:11;;;;;;;8.93;7.53;;;;;;;11.40;nan;101311.13;5027044;28;20090;-80
2022/05/09 03:59:37;;;;;;;9.02;7.50;;;;;;;11.37;nan;101307.91;5005232;28;20033;-81
2022/05/09 04:02:02;;;;;;;;;;;;;;;11.29;nan;101307.78;5037981;28;20040;-81
2022/05/09 04:04:27;;;;;;;11.25;8.52;;;;;;;11.29;nan;101313.06;5033575;28;20453;-81
2022/05/09 04:06:53;;;;;;;9.43;7.20;;;;;;;11.27;nan;101314.06;5040078;28;20039;-80
2022/05/09 04:09:18;;;;;;;8.45;7.22;;;;;;;11.24;nan;101310.81;5038294;28;20034;-80
2022/05/09 04:11:46;;;;;;;8.82;7.00;;;;;;;11.21;nan;101313.75;5038691;28;20021;-80
2022/05/09 04:14:12;;;;;;;7.65;6.50;;;;;;;11.30;nan;101320.03;5037893;28;20403;-80
2022/05/09 04:16:49;;;;;;;8.77;7.30;;;;;;;11.23;nan;101320.59;5014245;28;20128;-80
2022/05/09 04:19:16;;;;;;;9.13;7.57;;;;;;;11.18;nan;101327.28;5045256;28;20625;-80
2022/05/09 04:21:42;;;;;;;9.25;7.82;;;;;;;11.14;nan;101329.34;5038845;28;20034;-81
2022/05/09 04:24:07;;;;;;;9.40;7.45;;;;;;;11.15;nan;101333.66;5039454;28;20067;-80
2022/05/09 04:26:33;;;;;;;9.30;7.25;;;;;;;11.17;nan;101328.22;5025579;28;20061;-79
2022/05/09 04:28:59;;;;;;;10.05;6.97;;;;;;;11.19;nan;101329.78;5027867;28;20567;-80
2022/05/09 04:31:26;;;;;;;9.68;8.10;;;;;;;11.23;nan;101331.19;5032606;28;20033;-80
2022/05/09 04:33:52;;;;;;;7.45;6.55;;;;;;;11.27;nan;101343.19;5044464;28;20107;-81
2022/05/09 04:36:18;;;;;;;9.77;7.63;;;;;;;11.31;nan;101333.13;5016516;28;20033;-81
2022/05/09 04:38:43;;;;;;;8.75;7.30;;;;;;;11.37;nan;101344.97;5032540;28;20055;-80
2022/05/09 04:41:10;;;;;;;8.02;6.90;;;;;;;11.41;nan;101341.09;5036493;28;20025;-80
2022/05/09 04:43:37;;;;;;;9.82;7.80;;;;;;;11.44;nan;101343.47;5033362;28;20025;-80
2022/05/09 04:46:04;;;;;;;11.00;8.43;;;;;;;11.49;nan;101341.25;5026030;28;20121;-80
2022/05/09 04:48:30;;;;;;;11.32;8.02;;;;;;;11.55;nan;101347.81;5018622;28;20038;-81
2022/05/09 04:50:56;;;;;;;9.02;7.63;;;;;;;11.62;nan;101346.28;5037251;28;20052;-80
2022/05/09 04:53:22;;;;;;;10.07;7.53;;;;;;;11.67;nan;101347.53;5044375;28;20119;-80
2022/05/09 04:55:47;;;;;;;11.02;8.32;;;;;;;11.75;nan;101346.84;5041365;28;20061;-81
2022/05/09 04:58:20;;;;;;;8.38;6.70;;;;;;;11.85;nan;101346.84;5042374;28;20030;-80
2022/05/09 05:00:46;;;;;;;8.02;7.20;;;;;;;11.95;nan;101353.00;5047396;28;20044;-80
2022/05/09 05:03:12;;;;;;;9.25;7.30;;;;;;;12.06;nan;101349.34;5035293;28;20034;-80
2022/05/09 05:05:39;;;;;;;9.02;6.50;;;;;;;12.17;nan;101348.38;5036628;28;20418;-80
2022/05/09 05:08:04;;;;;;;9.75;7.93;;;;;;;12.27;nan;101346.53;5035311;28;20060;-81
2022/05/09 05:10:30;;;;;;;10.02;8.30;;;;;;;12.36;nan;101353.66;5023081;28;20033;-81
2022/05/09 05:12:57;;;;;;;10.57;8.35;;;;;;;12.47;nan;101352.66;5039139;28;20086;-80
2022/05/09 05:15:23;;;;;;;10.40;7.90;;;;;;;12.57;nan;101353.47;5049928;28;20113;-81
2022/05/09 05:17:48;;;;;;;10.18;8.20;;;;;;;12.69;nan;101356.78;5044293;28;20090;-80
2022/05/09 05:20:15;;;;;;;9.13;7.13;;;;;;;12.93;nan;101357.09;5039782;28;20068;-80
2022/05/09 05:22:43;;;;;;;10.05;7.10;;;;;;;13.25;nan;101358.47;5038307;28;20057;-81
2022/05/09 05:25:10;;;;;;;9.73;7.65;;;;;;;13.60;nan;101362.16;5018300;28;20038;-81
2022/05/09 05:27:36;;;;;;;10.25;7.40;;;;;;;13.93;nan;101360.66;5043769;28;20056;-81
2022/05/09 05:30:03;;;;;;;10.57;7.38;;;;;;;14.29;nan;101368.56;5043265;28;20435;-81
2022/05/09 05:32:31;;;;;;;8.85;7.00;;;;;;;14.63;nan;101370.47;5039595;28;20038;-81
2022/05/09 05:34:57;;;;;;;9.63;7.40;;;;;;;14.91;nan;101368.47;5039223;28;20163;-81
2022/05/09 05:37:23;;;;;;;8.77;6.55;;;;;;;15.28;nan;101373.44;5049899;28;20510;-81
2022/05/09 05:39:48;;;;;;;8.52;7.03;;;;;;;15.63;nan;101370.69;5049000;28;20038;-81
2022/05/09 05:42:17;;;;;;;7.13;5.80;;;;;;;16.00;nan;101377.44;5036297;28;20060;-81
2022/05/09 05:44:43;;;;;;;6.35;5.50;;;;;;;16.37;nan;101373.41;5037126;28;20064;-81
2022/05/09 05:47:10;;;;;;;5.45;4.60;;;;;;;16.70;nan;101379.50;5042260;28;20033;-80
2022/05/09 05:49:36;;;;;;;5.47;4.25;;;;;;;17.05;nan;101385.44;5033594;28;20044;-81
2022/05/09 05:52:03;;;;;;;5.75;4.75;;;;;;;17.35;nan;101381.97;5043358;28;20051;-81
2022/05/09 05:54:35;;;;;;;5.90;4.50;;;;;;;17.68;nan;101386.28;5043820;28;20097;-81
2022/05/09 05:57:01;;;;;;;5.18;4.25;;;;;;;18.02;nan;101393.94;5042450;28;20033;-81
2022/05/09 05:59:27;;;;;;;5.22;4.00;;;;;;;18.31;nan;101389.66;5049157;28;20123;-81
2022/05/09 06:01:53;;;;;;;4.82;3.80;;;;;;;18.63;nan;101392.00;5033258;28;20121;-82
2022/05/09 06:04:19;;;;;;;6.50;4.10;;;;;;;18.84;nan;101382.44;5041890;28;20057;-81
2022/05/09 06:06:45;;;;;;;7.30;4.50;;;;;;;19.05;nan;101385.19;5044691;28;20252;-81
2022/05/09 06:09:12;;;;;;;5.80;4.50;;;;;;;19.26;nan;101378.25;5025488;28;20049;-81
2022/05/09 06:11:38;;;;;;;8.68;4.63;;;;;;;19.52;nan;101385.72;5049615;28;20038;-81
2022/05/09 06:14:05;;;;;;;6.93;4.25;;;;;;;19.67;nan;101389.22;5045425;28;20109;-82
2022/05/09 06:16:30;;;;;;;7.30;4.43;;;;;;;19.92;nan;101383.50;5040708;28;20036;-82
2022/05/09 06:18:56;;;;;;;8.43;4.35;;;;;;;20.21;nan;101381.66;5021519;28;20029;-82
2022/05/09 06:21:22;;;;;;;5.47;3.80;;;;;;;20.37;nan;101384.06;5040774;28;20056;-82
2022/05/09 06:23:49;;;;;;;6.72;4.10;;;;;;;20.61;nan;101380.13;5039188;28;20038;-81
2022/05/09 06:26:15;;;;;;;6.53;3.80;;;;;;;20.85;nan;101384.19;5036785;28;20038;-82
2022/05/09 06:28:41;;;;;;;8.02;4.00;;;;;;;21.17;nan;101387.25;5029380;28;20033;-83
2022/05/09 06:31:06;;;;;;;4.70;3.70;;;;;;;21.32;nan;101390.63;5033566;28;20372;-83
2022/05/09 06:33:32;;;;;;;3.90;2.97;;;;;;;21.56;nan;101393.81;5027530;28;20030;-83
2022/05/09 06:35:59;;;;;;;4.60;2.78;;;;;;;21.76;nan;101394.72;5030223;28;20037;-83
2022/05/09 06:38:27;;;;;;;4.43;2.97;;;;;;;22.08;nan;101392.25;5034864;28;20845;-83
2022/05/09 06:40:53;;;;;;;4.10;3.20;;;;;;;22.01;nan;101397.63;5035825;28;20041;-84
2022/05/09 06:43:19;;;;;;;4.15;2.83;;;;;;;22.29;nan;101398.50;5037203;28;20037;-83
2022/05/09 06:45:45;;;;;;;5.35;2.90;;;;;;;22.54;nan;101398.66;5031860;28;20128;-84
2022/05/09 06:48:11;;;;;;;4.13;2.78;;;;;;;22.86;nan;101399.66;5045853;28;20390;-84
2022/05/09 06:50:38;;;;;;;4.00;2.50;;;;;;;22.80;nan;101395.09;5034930;28;20119;-83
2022/05/09 06:53:04;;;;;;;3.67;2.25;;;;;;;22.71;nan;101396.34;5036716;28;20033;-83
2022/05/09 06:55:29;;;;;;;3.17;2.20;;;;;;;22.96;nan;101391.94;5047831;28;20068;-84
2022/05/09 06:57:54;;;;;;;3.28;2.20;;;;;;;23.22;nan;101388.34;5017841;28;20544;-83
2022/05/09 07:00:23;;;;;;;5.03;2.58;;;;;;;23.23;nan;101399.94;5019315;28;20038;-84
2022/05/09 07:02:49;;;;;;;3.92;2.53;;;;;;;23.29;nan;101396.41;5041551;28;20140;-82
2022/05/09 07:05:16;;;;;;;3.80;2.05;;;;;;;23.47;nan;101396.50;5036975;28;20117;-83
2022/05/09 07:07:43;;;;;;;4.57;2.45;;;;;;;23.64;nan;101391.41;5036986;28;20033;-83
2022/05/09 07:10:12;;;;;;;3.47;2.70;;;;;;;23.56;nan;101398.97;5035199;28;20117;-83
2022/05/09 07:12:45;;;;;;;4.13;2.60;;;;;;;23.65;nan;101390.38;5039689;28;20038;-83
2022/05/09 07:15:13;;;;;;;3.92;2.90;;;;;;;23.51;nan;101392.31;5043649;28;20047;-84
2022/05/09 07:17:38;;;;;;;3.67;2.20;;;;;;;23.67;nan;101396.41;5043645;28;20037;-82
2022/05/09 07:20:04;;;;;;;;;;;;;;;23.79;nan;101393.84;5047244;28;20044;-83
2022/05/09 07:22:30;;;;;;;5.25;2.70;;;;;;;23.78;nan;101394.88;5033100;28;19917;-83
2022/05/09 07:24:55;;;;;;;4.40;2.30;;;;;;;24.20;nan;101395.19;5031882;28;20045;-83
2022/05/09 07:27:20;;;;;;;3.42;2.30;;;;;;;24.77;nan;101393.22;5045720;28;20049;-83
2022/05/09 07:29:45;;;;;;;3.85;2.17;;;;;;;24.94;nan;101398.03;5021803;28;20040;-83
2022/05/09 07:32:11;;;;;;;3.30;2.45;;;;;;;25.13;nan;101396.13;5024511;28;20033;-83
2022/05/09 07:34:36;;;;;;;3.17;2.30;;;;;;;25.05;nan;101385.59;5030729;28;20121;-82
2022/05/09 07:37:03;;;;;;;4.57;2.60;;;;;;;24.91;nan;101387.66;5010283;28;20043;-81
2022/05/09 07:39:28;;;;;;;3.78;2.22;;;;;;;25.12;nan;101395.31;5042985;28;20124;-81
2022/05/09 07:41:54;;;;;;;3.65;2.72;;;;;;;25.33;nan;101385.06;5032428;28;20534;-79
2022/05/09 07:44:19;;;;;;;3.47;2.20;;;;;;;25.24;nan;101398.09;5031161;28;20038;-79
2022/05/09 07:46:44;;;;;;;4.15;2.38;;;;;;;25.44;nan;101395.13;5019999;28;20041;-79
2022/05/09 07:49:10;;;;;;;3.67;2.03;;;;;;;25.67;nan;101393.53;5037821;28;20034;-79
2022/05/09 07:51:37;;;;;;;3.70;2.42;;;;;;;26.03;nan;101392.63;5019766;28;20049;-80
2022/05/09 07:54:03;;;;;;;3.55;2.05;;;;;;;26.62;nan;101400.78;5042730;28;20521;-80
2022/05/09 07:56:28;;;;;;;4.32;2.53;;;;;;;26.68;nan;101399.84;5031754;28;20074;-81
2022/05/09 07:58:54;;;;;;;3.47;1.70;;;;;;;26.89;nan;101399.22;5045732;28;20071;-81
2022/05/09 08:01:19;;;;;;;4.43;2.30;;;;;;;27.22;nan;101397.75;5024428;28;20038;-82
2022/05/09 08:03:44;;;;;;;2.65;1.80;;;;;;;27.63;nan;101401.22;5044010;28;20044;-82
2022/05/09 08:06:10;;;;;;;3.58;2.00;;;;;;;27.84;nan;101402.44;5021233;28;20033;-82
2022/05/09 08:08:36;;;;;;;2.05;1.40;;;;;;;28.15;nan;101400.19;5027303;28;20503;-80
2022/05/09 08:11:02;;;;;;;2.90;2.05;;;;;;;28.00;nan;101408.13;5040288;28;20044;-82
2022/05/09 08:13:32;;;;;;;3.65;1.90;;;;;;;28.29;nan;101401.53;5043432;28;20033;-82
2022/05/09 08:15:59;;;;;;;2.67;2.00;;;;;;;28.59;nan;101395.72;5020857;28;20609;-81
2022/05/09 08:18:25;;;;;;;3.20;1.83;;;;;;;29.03;nan;101403.06;5030488;28;20041;-82
2022/05/09 08:20:51;;;;;;;3.33;1.67;;;;;;;29.49;nan;101402.81;5039837;28;20025;-81
2022/05/09 08:23:18;;;;;;;3.00;1.75;;;;;;;29.81;nan;101398.22;5046462;28;20045;-82
2022/05/09 08:25:48;;;;;;;2.92;1.65;;;;;;;29.76;nan;101400.09;5027878;28;20052;-82
2022/05/09 08:28:15;;;;;;;2.53;1.70;;;;;;;29.79;nan;101400.38;5044408;28;20124;-80
2022/05/09 08:30:41;;;;;;;3.92;2.15;;;;;;;29.93;nan;101397.22;5041512;28;20049;-81
2022/05/09 08:33:17;;;;;;;3.25;2.00;;;;;;;30.24;nan;101399.09;5030744;28;20064;-82
2022/05/09 08:35:44;;;;;;;5.30;2.10;;;;;;;29.88;nan;101397.19;5043099;28;20033;-82
2022/05/09 08:38:10;;;;;;;2.95;1.88;;;;;;;30.05;nan;101397.88;5046957;28;20045;-81
2022/05/09 08:40:45;;;;;;;3.40;2.33;;;;;;;30.12;nan;101401.19;5035969;28;20495;-82
2022/05/09 08:43:29;;;;;;;3.08;2.10;;;;;;;30.22;nan;101395.00;5049111;28;20056;-81
2022/05/09 08:46:36;;;;;;;3.13;2.08;;;;;;;30.38;nan;101402.22;5029675;28;20037;-81
2022/05/09 08:49:20;;;;;;;3.72;2.13;;;;;;;30.83;nan;101400.03;5036830;28;20036;-80
2022/05/09 08:51:52;;;;;;;3.20;1.80;;;;;;;31.08;nan;101393.84;5030833;28;20033;-79
2022/05/09 08:54:21;;;;;;;4.20;2.30;;;;;;;30.99;nan;101390.84;5042959;28;20171;-80
2022/05/09 08:56:51;;;;;;;3.45;2.08;;;;;;;31.22;nan;101397.72;5041360;28;20037;-80
2022/05/09 08:59:27;;;;;;;3.47;1.80;;;;;;;31.07;nan;101393.03;5038105;28;20084;-80
2022/05/09 09:02:02;;;;;;;3.60;2.10;;;;;;;31.27;nan;101392.28;5032164;28;20029;-81
2022/05/09 09:04:32;;;;;;;2.38;1.88;;;;;;;31.55;nan;101394.81;5032804;28;20044;-80
2022/05/09 09:07:16;;;;;;;4.10;2.00;;;;;;;31.83;nan;101394.28;5025116;28;20037;-80
2022/05/09 09:10:10;;;;;;;3.10;2.30;;;;;;;32.32;nan;101385.53;5017741;28;20503;-81
2022/05/09 09:12:58;;;;;;;3.65;1.90;;;;;;;32.87;nan;101396.59;5018018;28;20067;-82
2022/05/09 09:15:34;;;;;;;4.30;2.15;;;;;;;33.03;nan;101393.78;5034220;28;20037;-81
2022/05/09 09:18:24;;;;;;;3.85;2.25;;;;;;;32.78;nan;101390.88;5042232;28;20025;-81
2022/05/09 09:21:00;;;;;;;3.15;1.85;;;;;;;33.34;nan;101394.44;5029204;28;20786;-81
2022/05/09 09:23:38;;;;;;;3.42;2.08;;;;;;;33.60;nan;101392.38;5036602;28;20061;-81
2022/05/09 09:26:09;;;;;;;2.92;1.83;;;;;;;33.66;nan;101387.66;5024667;28;20060;-82
2022/05/09 09:28:47;;;;;;;3.95;2.30;;;;;;;33.23;nan;101377.25;5030498;28;20048;-82
2022/05/09 09:31:16;;;;;;;2.90;1.73;;;;;;;33.45;nan;101379.56;5041733;28;20037;-80
2022/05/09 09:33:54;;;;;;;2.00;1.52;;;;;;;34.09;nan;101387.88;5037465;28;20067;-80
2022/05/09 09:36:25;;;;;;;2.45;1.70;;;;;;;34.56;nan;101378.03;5020724;28;20038;-81
2022/05/09 09:39:01;;;;;;;3.53;1.98;;;;;;;34.48;nan;101380.31;5033029;28;20037;-80
2022/05/09 09:41:30;;;;;;;2.67;1.60;;;;;;;34.86;nan;101385.09;5032905;28;20250;-81
2022/05/09 09:44:05;;;;;;;4.22;2.38;;;;;;;35.25;nan;101381.28;5044301;28;20059;-82
2022/05/09 09:46:30;;;;;;;3.58;2.25;;;;;;;35.48;nan;101385.88;5037385;28;20037;-82
2022/05/09 09:49:09;;;;;;;3.10;2.00;;;;;;;36.07;nan;101383.53;5045129;28;20034;-82
2022/05/09 09:51:48;;;;;;;4.20;2.10;;;;;;;36.62;nan;101377.31;5036181;28;20726;-81
2022/05/09 09:54:20;;;;;;;3.92;2.17;;;;;;;37.06;nan;101377.75;5035206;28;20044;-81
2022/05/09 09:56:45;;;;;;;3.35;1.80;;;;;;;37.10;nan;101370.50;5017175;28;20044;-81
2022/05/09 09:59:13;;;;;;;2.63;2.00;;;;;;;37.26;nan;101371.78;5036620;28;20120;-80
2022/05/09 10:01:40;;;;;;;3.72;2.20;;;;;;;37.19;nan;101374.16;5019201;28;20099;-80
2022/05/09 10:04:28;;;;;;;3.67;2.03;;;;;;;36.39;nan;101365.34;5026033;28;20049;-81
2022/05/09 10:06:59;;;;;;;4.32;2.45;;;;;;;35.89;nan;101371.47;5022974;28;20121;-81
2022/05/09 10:09:25;;;;;;;6.15;2.65;;;;;;;36.22;nan;101363.19;5035706;28;20506;-80
2022/05/09 10:11:50;;;;;;;3.75;2.30;;;;;;;36.02;nan;101367.13;5037479;28;20084;-81
2022/05/09 10:14:45;;;;;;;3.60;2.10;;;;;;;36.34;nan;101357.19;5033829;28;20069;-81
2022/05/09 10:17:26;;;;;;;3.50;2.25;;;;;;;36.71;nan;101352.59;4998637;28;20049;-81
2022/05/09 10:19:53;;;;;;;2.90;1.90;;;;;;;37.22;nan;101354.22;5032427;28;20030;-81
2022/05/09 10:25:28;;;;;;;3.25;2.03;;;;;;;38.19;nan;101353.72;5047375;28;20120;-81
2022/05/09 10:28:14;;;;;;;3.83;2.03;;;;;;;38.13;nan;101350.28;5035753;28;20088;-82
2022/05/09 10:30:43;;;;;;;3.10;2.00;;;;;;;36.30;nan;101345.13;5038784;28;20037;-81
2022/05/09 10:33:15;;;;;;;3.88;2.00;;;;;;;36.38;nan;101343.63;5043350;28;20037;-80
2022/05/09 10:35:49;;;;;;;4.95;2.00;;;;;;;37.25;nan;101342.56;5035034;28;20530;-81
2022/05/09 10:38:23;;;;;;;3.20;2.00;;;;;;;37.34;nan;101339.88;5042586;28;20039;-82
2022/05/09 10:41:04;;;;;;;3.33;2.20;;;;;;;36.78;nan;101337.28;5037248;28;20064;-81
2022/05/09 10:43:34;;;;;;;3.15;1.88;;;;;;;36.74;nan;101333.50;5016624;28;20064;-81
2022/05/09 10:46:07;;;;;;;4.18;2.03;;;;;;;36.96;nan;101335.47;5034104;28;20044;-81
2022/05/09 10:49:01;;;;;;;3.00;2.08;;;;;;;37.68;nan;101327.47;5041074;28;20034;-81
2022/05/09 10:51:43;;;;;;;2.55;2.00;;;;;;;38.24;nan;101323.19;5012264;28;20049;-82
2022/05/09 10:54:35;;;;;;;2.58;1.77;;;;;;;38.17;nan;101322.84;5036517;28;20048;-81
2022/05/09 10:57:17;;;;;;;4.00;2.20;;;;;;;37.47;nan;101311.41;5039279;28;20100;-82
2022/05/09 10:59:45;;;;;;;3.00;1.90;;;;;;;37.88;nan;101318.66;5013244;28;20388;-81
2022/05/09 11:02:22;;;;;;;4.40;2.00;;;;;;;37.47;nan;101311.41;5042079;28;20037;-81
2022/05/09 11:04:48;;;;;;;3.42;2.05;;;;;;;38.36;nan;101314.28;5015150;28;20076;-82
2022/05/09 11:07:28;;;;;;;2.83;1.60;;;;;;;39.01;nan;101307.91;5037090;28;20037;-82
2022/05/09 11:10:10;;;;;;;3.53;1.90;;;;;;;38.41;nan;101308.63;5040062;28;20030;-82
2022/05/09 11:12:38;;;;;;;3.45;2.10;;;;;;;38.61;nan;101299.72;5041483;28;20043;-81
2022/05/09 11:15:30;;;;;;;4.90;2.25;;;;;;;38.50;nan;101298.44;5022433;28;20596;-81
2022/05/09 11:18:14;;;;;;;2.45;1.60;;;;;;;39.02;nan;101295.72;5034516;28;20037;-81
2022/05/09 11:21:09;;;;;;;2.75;1.80;;;;;;;39.56;nan;101288.97;5037729;28;20487;-82
2022/05/09 11:24:24;;;;;;;1.98;1.40;;;;;;;40.60;nan;101285.72;5029272;28;20466;-81
2022/05/09 11:26:53;;;;;;;2.78;1.75;;;;;;;40.49;nan;101288.06;5016238;28;20094;-81
2022/05/09 11:29:24;;;;;;;2.95;2.00;;;;;;;40.04;nan;101282.28;5028930;28;20060;-81
2022/05/09 11:31:58;;;;;;;3.13;1.77;;;;;;;40.05;nan;101276.41;5047166;28;20036;-82
2022/05/09 11:34:55;;;;;;;2.80;1.70;;;;;;;40.63;nan;101282.25;5042759;28;20120;-81
2022/05/09 11:37:21;;;;;;;2.15;1.60;;;;;;;40.21;nan;101276.63;5022646;28;20116;-82
2022/05/09 11:40:02;;;;;;;2.90;1.70;;;;;;;40.77;nan;101267.34;5039086;28;20052;-81
2022/05/09 11:45:45;;;;;;;2.28;1.60;;;;;;;43.02;nan;101271.19;5038178;28;20049;-82
2022/05/09 11:48:26;;;;;;;2.13;1.50;;;;;;;43.48;nan;101278.03;5035830;28;20041;-82
2022/05/09 11:51:29;;;;;;;2.67;1.75;;;;;;;43.64;nan;101272.47;5039415;28;20042;-81
2022/05/09 11:54:09;;;;;;;2.88;1.75;;;;;;;39.95;nan;101262.13;5030552;28;20064;-79
2022/05/09 11:56:38;;;;;;;2.75;2.00;;;;;;;37.10;nan;101251.94;5021038;28;20452;-80
2022/05/09 11:59:04;;;;;;;3.08;2.03;;;;;;;34.68;nan;101252.91;5028968;28;20453;-79
2022/05/09 12:01:55;;;;;;;2.92;2.03;;;;;;;34.31;nan;101255.59;5044073;28;20121;-80
2022/05/09 12:04:50;;;;;;;3.10;1.80;;;;;;;34.08;nan;101248.97;5030186;28;20044;-80
2022/05/09 12:07:21;;;;;;;2.97;2.10;;;;;;;33.90;nan;101247.81;5003279;28;20037;-80
2022/05/09 12:10:02;;;;;;;3.38;1.92;;;;;;;33.02;nan;101249.66;5033931;28;20041;-79